Time;durP1;ratioP1;P1;durP2;ratioP2;P2;SDS_P1;SDS_P2;PMS_P1;PMS_P2;Temp;Humidity;BMP_temperature;BMP_pressure;BME280_temperature;BME280_humidity;BME280_pressure;Samples;Min_cycle;Max_cycle;Signal;HPM_P1;HPM_P2
2023/08/16 00:01:00;112674.00;0.38;195.44;0.00;0.00;0.62;;;;;24.40;9.10;;;;;;2275777;61;1121;-82
2023/08/16 00:03:27;17052.00;0.06;30.16;0.00;0.00;0.62;;;;;24.50;8.50;;;;;;2276556;61;2006;-86
2023/08/16 00:05:54;59236.00;0.20;103.16;0.00;0.00;0.62;;;;;24.30;9.30;;;;;;2276954;61;948;-83
2023/08/16 00:08:21;138693.00;0.46;240.32;19275.00;0.06;34.01;;;;;24.30;8.80;;;;;;2276892;61;1578;-86
2023/08/16 00:10:50;0.00;0.00;0.62;0.00;0.00;0.62;;;;;24.40;9.20;;;;;;2276978;61;2295;-87
2023/08/16 00:13:17;115987.00;0.39;201.16;0.00;0.00;0.62;;;;;24.30;9.30;;;;;;2276870;61;1383;-86
2023/08/16 00:15:43;75507.00;0.25;131.28;0.00;0.00;0.62;;;;;24.50;9.00;;;;;;2277049;61;1118;-86
2023/08/16 00:18:12;0.00;0.00;0.62;0.00;0.00;0.62;;;;;24.40;9.30;;;;;;2275872;61;1094;-83
2023/08/16 00:20:39;0.00;0.00;0.62;0.00;0.00;0.62;;;;;24.50;8.60;;;;;;2277001;61;1106;-86
2023/08/16 00:23:05;0.00;0.00;0.62;0.00;0.00;0.62;;;;;24.40;9.40;;;;;;2276006;61;1928;-83
2023/08/16 00:25:32;7526.00;0.03;13.66;0.00;0.00;0.62;;;;;24.40;9.40;;;;;;2276471;61;1035;-81
2023/08/16 00:27:59;0.00;0.00;0.62;0.00;0.00;0.62;;;;;24.20;9.40;;;;;;2276915;61;1079;-87
2023/08/16 00:30:26;169872.00;0.57;294.05;81962.00;0.27;142.43;;;;;24.20;9.20;;;;;;2276982;61;1123;-86
2023/08/16 00:32:52;16489.00;0.05;29.19;0.00;0.00;0.62;;;;;24.20;9.80;;;;;;2277030;61;1042;-86
2023/08/16 00:35:21;14403.00;0.05;25.58;0.00;0.00;0.62;;;;;23.90;11.30;;;;;;2276958;61;1461;-88
2023/08/16 00:37:47;131278.00;0.44;227.53;65212.00;0.22;113.49;;;;;23.80;11.60;;;;;;2276988;61;1034;-87
2023/08/16 00:40:15;0.00;0.00;0.62;0.00;0.00;0.62;;;;;23.70;11.80;;;;;;2276969;61;1106;-88
2023/08/16 00:42:42;0.00;0.00;0.62;0.00;0.00;0.62;;;;;23.80;12.20;;;;;;2277013;61;1243;-85
2023/08/16 00:45:10;373296.00;1.24;643.90;53578.00;0.18;93.37;;;;;24.00;10.70;;;;;;2276907;61;1940;-85
2023/08/16 00:47:37;0.00;0.00;0.62;0.00;0.00;0.62;;;;;24.10;10.50;;;;;;2277016;61;1150;-87
2023/08/16 00:50:04;101333.00;0.34;175.87;0.00;0.00;0.62;;;;;24.20;9.70;;;;;;2277015;61;1156;-88
2023/08/16 00:52:33;333294.00;1.11;575.15;0.00;0.00;0.62;;;;;24.40;9.40;;;;;;2276966;61;1121;-87
2023/08/16 00:55:02;62009.00;0.21;107.95;0.00;0.00;0.62;;;;;24.40;9.40;;;;;;2276866;61;1286;-87
2023/08/16 00:57:29;0.00;0.00;0.62;0.00;0.00;0.62;;;;;24.40;8.90;;;;;;2276926;61;1156;-88
2023/08/16 00:59:56;70478.00;0.23;122.59;0.00;0.00;0.62;;;;;24.50;8.10;;;;;;2276892;61;1168;-86
2023/08/16 01:02:23;0.00;0.00;0.62;0.00;0.00;0.62;;;;;24.60;7.60;;;;;;2276948;61;1110;-88
2023/08/16 01:04:50;0.00;0.00;0.62;0.00;0.00;0.62;;;;;24.50;7.90;;;;;;2276806;61;1918;-86
2023/08/16 01:07:17;0.00;0.00;0.62;0.00;0.00;0.62;;;;;24.50;7.80;;;;;;2276962;61;1044;-88
2023/08/16 01:09:46;96474.00;0.32;167.49;0.00;0.00;0.62;;;;;24.40;7.80;;;;;;2276906;61;1113;-87
2023/08/16 01:12:20;0.00;0.00;0.62;0.00;0.00;0.62;;;;;24.50;8.00;;;;;;2276934;61;1126;-86
2023/08/16 01:14:56;0.00;0.00;0.62;0.00;0.00;0.62;;;;;24.50;7.70;;;;;;2276834;61;1460;-88
2023/08/16 01:17:25;8634.00;0.03;15.58;0.00;0.00;0.62;;;;;24.40;7.90;;;;;;2276927;61;1114;-87
2023/08/16 01:19:56;0.00;0.00;0.62;0.00;0.00;0.62;;;;;24.20;9.20;;;;;;2276869;61;1090;-85
2023/08/16 01:22:32;0.00;0.00;0.62;0.00;0.00;0.62;;;;;24.00;9.10;;;;;;2276904;61;1023;-85
2023/08/16 01:25:14;90412.00;0.30;157.02;0.00;0.00;0.62;;;;;23.80;9.80;;;;;;2276624;61;1919;-87
2023/08/16 01:27:43;73542.00;0.25;127.88;0.00;0.00;0.62;;;;;23.90;9.80;;;;;;2276854;61;1167;-88
2023/08/16 01:30:12;0.00;0.00;0.62;0.00;0.00;0.62;;;;;23.90;9.10;;;;;;2276762;61;1608;-87
2023/08/16 01:32:39;0.00;0.00;0.62;0.00;0.00;0.62;;;;;23.40;11.20;;;;;;2276866;61;1071;-87
2023/08/16 01:35:07;176743.00;0.59;305.88;0.00;0.00;0.62;;;;;23.10;12.60;;;;;;2276663;61;1416;-85
2023/08/16 01:37:34;167055.00;0.56;289.19;37296.00;0.12;65.21;;;;;23.10;12.60;;;;;;2276831;61;1015;-88
2023/08/16 01:40:04;144695.00;0.48;250.66;0.00;0.00;0.62;;;;;23.10;13.20;;;;;;2276849;61;1062;-87
2023/08/16 01:42:36;483488.00;1.61;833.40;53950.00;0.18;94.02;;;;;23.00;13.70;;;;;;2276728;61;1054;-86
2023/08/16 01:45:05;153954.00;0.51;266.62;21540.00;0.07;37.94;;;;;23.10;12.80;;;;;;2276793;61;2002;-88
2023/08/16 01:47:33;0.00;0.00;0.62;0.00;0.00;0.62;;;;;23.10;13.50;;;;;;2276735;61;1137;-88
2023/08/16 01:50:00;19785.00;0.07;34.90;0.00;0.00;0.62;;;;;23.20;13.50;;;;;;2276739;61;1753;-88
2023/08/16 01:52:28;79787.00;0.27;138.67;0.00;0.00;0.62;;;;;23.20;13.40;;;;;;2276787;61;2302;-87
2023/08/16 01:54:55;0.00;0.00;0.62;0.00;0.00;0.62;;;;;23.30;12.80;;;;;;2276737;61;1408;-87
2023/08/16 01:57:22;0.00;0.00;0.62;0.00;0.00;0.62;;;;;23.40;12.50;;;;;;2276766;61;1086;-88
2023/08/16 01:59:49;249412.00;0.83;430.94;97534.00;0.33;169.32;;;;;23.50;11.60;;;;;;2276786;61;1123;-88
2023/08/16 02:02:17;0.00;0.00;0.62;0.00;0.00;0.62;;;;;23.60;11.70;;;;;;2276711;61;1148;-88
2023/08/16 02:04:44;0.00;0.00;0.62;0.00;0.00;0.62;;;;;23.60;11.40;;;;;;2276700;61;1923;-89
2023/08/16 02:07:10;4142.00;0.01;7.80;0.00;0.00;0.62;;;;;23.60;11.70;;;;;;2276684;61;1058;-86
2023/08/16 02:09:37;0.00;0.00;0.62;0.00;0.00;0.62;;;;;23.50;12.20;;;;;;2276599;61;1071;-87
2023/08/16 02:12:04;0.00;0.00;0.62;0.00;0.00;0.62;;;;;23.40;12.00;;;;;;2276766;61;1041;-88
2023/08/16 02:14:31;27145.00;0.09;47.64;0.00;0.00;0.62;;;;;23.30;12.70;;;;;;2276637;61;1550;-87
2023/08/16 02:16:58;29010.00;0.10;50.87;0.00;0.00;0.62;;;;;23.30;12.40;;;;;;2276707;61;1126;-88
2023/08/16 02:19:26;36182.00;0.12;63.28;0.00;0.00;0.62;;;;;23.30;12.50;;;;;;2276739;61;1114;-87
2023/08/16 02:21:53;0.00;0.00;0.62;0.00;0.00;0.62;;;;;23.40;11.90;;;;;;2276695;61;1038;-87
2023/08/16 02:24:20;7499.00;0.02;13.62;0.00;0.00;0.62;;;;;23.60;11.20;;;;;;2276673;61;2006;-89
2023/08/16 02:26:46;0.00;0.00;0.62;0.00;0.00;0.62;;;;;23.50;11.90;;;;;;2276651;61;1024;-90
2023/08/16 02:29:13;12185.00;0.04;21.73;0.00;0.00;0.62;;;;;23.40;12.20;;;;;;2276701;61;1109;-88
2023/08/16 02:31:40;161574.00;0.54;279.75;0.00;0.00;0.62;;;;;23.30;11.80;;;;;;2276687;61;1235;-88
2023/08/16 02:34:07;142601.00;0.48;247.05;0.00;0.00;0.62;;;;;23.40;11.70;;;;;;2276597;61;1389;-85
2023/08/16 02:36:35;0.00;0.00;0.62;0.00;0.00;0.62;;;;;23.30;11.80;;;;;;2276628;61;1118;-88
2023/08/16 02:39:03;84795.00;0.28;147.32;11508.00;0.04;20.56;;;;;23.30;11.80;;;;;;2276678;61;1120;-87
2023/08/16 02:41:30;32782.00;0.11;57.40;0.00;0.00;0.62;;;;;23.30;11.70;;;;;;2276643;61;1070;-87
2023/08/16 02:43:57;48703.00;0.16;84.94;0.00;0.00;0.62;;;;;23.20;12.00;;;;;;2276581;61;2006;-87
2023/08/16 02:46:24;0.00;0.00;0.62;0.00;0.00;0.62;;;;;23.30;12.10;;;;;;2276667;61;1168;-88
2023/08/16 02:48:51;35655.00;0.12;62.37;0.00;0.00;0.62;;;;;23.10;12.40;;;;;;2276655;61;1599;-88
2023/08/16 02:51:18;117783.00;0.39;204.26;28703.00;0.10;50.34;;;;;23.30;11.70;;;;;;2276591;61;2255;-87
2023/08/16 02:53:46;43483.00;0.14;75.91;0.00;0.00;0.62;;;;;23.10;11.90;;;;;;2276592;61;1390;-86
2023/08/16 02:56:13;261631.00;0.87;451.95;109264.00;0.36;189.56;;;;;23.10;12.00;;;;;;2276502;61;1705;-87
2023/08/16 02:58:40;71299.00;0.24;124.01;0.00;0.00;0.62;;;;;23.10;12.00;;;;;;2276616;61;1082;-86
2023/08/16 03:01:07;27094.00;0.09;47.55;0.00;0.00;0.62;;;;;23.30;11.50;;;;;;2276636;61;1089;-86
2023/08/16 03:03:34;0.00;0.00;0.62;0.00;0.00;0.62;;;;;23.20;11.60;;;;;;2276872;61;1405;-88
2023/08/16 03:06:01;233658.00;0.78;403.84;101541.00;0.34;176.23;;;;;23.10;12.00;;;;;;2287866;55;3658;-86
2023/08/16 03:08:28;0.00;0.00;0.62;0.00;0.00;0.62;;;;;22.80;12.50;;;;;;2272694;61;1697;-87
2023/08/16 03:10:56;0.00;0.00;0.62;0.00;0.00;0.62;;;;;22.80;13.10;;;;;;2272802;61;1224;-88
2023/08/16 03:13:23;44479.00;0.15;77.64;0.00;0.00;0.62;;;;;23.10;12.00;;;;;;2273593;61;1685;-85
2023/08/16 03:15:50;0.00;0.00;0.62;0.00;0.00;0.62;;;;;23.00;12.00;;;;;;2276870;61;1094;-87
2023/08/16 03:18:16;15169.00;0.05;26.90;0.00;0.00;0.62;;;;;22.90;11.90;;;;;;2276888;61;1090;-87
2023/08/16 03:20:43;76410.00;0.25;132.84;0.00;0.00;0.62;;;;;22.90;12.60;;;;;;2276855;61;1083;-88
2023/08/16 03:23:10;445027.00;1.48;767.23;106618.00;0.36;184.99;;;;;22.90;12.70;;;;;;2276812;61;1389;-87
2023/08/16 03:25:37;27611.00;0.09;48.45;0.00;0.00;0.62;;;;;22.80;13.00;;;;;;2276786;61;2002;-89
2023/08/16 03:28:06;0.00;0.00;0.62;0.00;0.00;0.62;;;;;22.80;13.60;;;;;;2276851;61;1207;-87
2023/08/16 03:30:32;181852.00;0.61;314.68;34661.00;0.12;60.65;;;;;22.80;13.30;;;;;;2276852;61;1178;-86
2023/08/16 03:32:59;181880.00;0.61;314.73;48595.00;0.16;84.76;;;;;22.70;13.70;;;;;;2276805;61;1390;-88
2023/08/16 03:35:26;109052.00;0.36;189.19;0.00;0.00;0.62;;;;;22.80;13.90;;;;;;2276859;61;1058;-86
2023/08/16 03:37:53;11975.00;0.04;21.37;0.00;0.00;0.62;;;;;22.80;13.50;;;;;;2276792;61;1700;-87
2023/08/16 03:40:20;0.00;0.00;0.62;0.00;0.00;0.62;;;;;22.70;14.10;;;;;;2276797;61;1155;-88
2023/08/16 03:42:46;0.00;0.00;0.62;0.00;0.00;0.62;;;;;22.70;13.80;;;;;;2276834;61;1104;-87
2023/08/16 03:45:15;0.00;0.00;0.62;0.00;0.00;0.62;;;;;22.70;14.10;;;;;;2276737;61;1920;-88
2023/08/16 03:47:41;125084.00;0.42;216.85;20447.00;0.07;36.04;;;;;22.80;13.80;;;;;;2276836;61;927;-88
2023/08/16 03:50:09;0.00;0.00;0.62;0.00;0.00;0.62;;;;;22.80;13.50;;;;;;2277483;61;1097;-87
2023/08/16 03:52:36;88976.00;0.30;154.54;0.00;0.00;0.62;;;;;22.80;13.50;;;;;;2277538;61;1204;-87
2023/08/16 03:55:03;95814.00;0.32;166.35;0.00;0.00;0.62;;;;;22.80;13.30;;;;;;2277374;61;1632;-85
2023/08/16 03:57:30;85467.00;0.28;148.48;0.00;0.00;0.62;;;;;22.80;12.90;;;;;;2277458;61;1131;-87
2023/08/16 03:59:57;0.00;0.00;0.62;0.00;0.00;0.62;;;;;22.70;13.60;;;;;;2277452;61;1071;-87
2023/08/16 04:02:25;0.00;0.00;0.62;0.00;0.00;0.62;;;;;22.60;13.60;;;;;;2277467;61;1193;-86
2023/08/16 04:04:53;130440.00;0.43;226.09;0.00;0.00;0.62;;;;;22.60;13.50;;;;;;2276861;61;2029;-88
2023/08/16 04:07:21;50353.00;0.17;87.80;0.00;0.00;0.62;;;;;22.60;14.30;;;;;;2277165;61;1024;-85
2023/08/16 04:09:48;30346.00;0.10;53.18;0.00;0.00;0.62;;;;;22.70;13.70;;;;;;2277446;61;1068;-84
2023/08/16 04:12:15;487719.00;1.63;840.68;142592.00;0.48;247.04;;;;;22.50;13.70;;;;;;2277497;61;1128;-87
2023/08/16 04:14:41;523789.00;1.75;902.79;118111.00;0.39;204.82;;;;;22.50;14.00;;;;;;2277437;61;1423;-85
2023/08/16 04:17:09;319979.00;1.07;552.26;0.00;0.00;0.62;;;;;22.50;14.40;;;;;;2277458;61;1226;-87
2023/08/16 04:19:37;212512.00;0.71;367.46;12623.00;0.04;22.49;;;;;22.50;14.70;;;;;;2277408;61;1013;-88
2023/08/16 04:22:04;965047.00;3.22;1670.66;123691.00;0.41;214.45;;;;;22.10;17.00;;;;;;2277457;61;1094;-88
2023/08/16 04:24:31;541351.00;1.80;933.05;34234.00;0.11;59.91;;;;;22.20;17.50;;;;;;2277244;61;1919;-87
2023/08/16 04:26:57;329268.00;1.10;568.23;0.00;0.00;0.62;;;;;22.30;16.90;;;;;;2277399;61;1558;-88
2023/08/16 04:29:24;454158.00;1.51;782.93;10401.00;0.03;18.64;;;;;22.50;16.10;;;;;;2277409;61;1157;-88
2023/08/16 04:31:51;407209.00;1.36;702.20;0.00;0.00;0.62;;;;;22.60;16.20;;;;;;2277105;61;1072;-88
2023/08/16 04:34:18;324800.00;1.08;560.55;0.00;0.00;0.62;;;;;22.50;16.30;;;;;;2277294;61;1306;-88
2023/08/16 04:36:46;324226.00;1.08;559.56;0.00;0.00;0.62;;;;;22.70;15.50;;;;;;2277401;61;1105;-89
2023/08/16 04:39:13;502264.00;1.67;865.72;10002.00;0.03;17.95;;;;;22.50;16.10;;;;;;2277331;61;1101;-86
2023/08/16 04:41:40;353567.00;1.18;609.99;22410.00;0.07;39.44;;;;;22.10;17.80;;;;;;2277292;61;1212;-88
2023/08/16 04:44:07;277234.00;0.92;478.78;0.00;0.00;0.62;;;;;22.10;18.20;;;;;;2277140;61;1561;-86
2023/08/16 04:46:33;295031.00;0.98;509.38;21992.00;0.07;38.72;;;;;22.20;17.40;;;;;;2277238;61;1947;-90
2023/08/16 04:49:00;237988.00;0.79;411.29;15769.00;0.05;27.94;;;;;22.30;17.10;;;;;;2277288;61;1105;-87
2023/08/16 04:51:27;339579.00;1.13;585.95;0.00;0.00;0.62;;;;;22.40;17.90;;;;;;2277281;61;1063;-87
2023/08/16 04:53:55;422712.00;1.41;728.85;0.00;0.00;0.62;;;;;22.50;16.70;;;;;;2277235;61;1663;-89
2023/08/16 04:56:22;513053.00;1.71;884.30;28848.00;0.10;50.59;;;;;22.50;17.10;;;;;;2277320;61;1092;-86
2023/08/16 04:58:49;382877.00;1.28;660.37;0.00;0.00;0.62;;;;;22.50;16.50;;;;;;2277315;61;1170;-87
2023/08/16 05:01:16;365937.00;1.22;631.25;64737.00;0.22;112.66;;;;;22.70;16.10;;;;;;2277240;61;1187;-84
2023/08/16 05:03:50;538613.00;1.80;928.33;67162.00;0.22;116.86;;;;;22.60;16.80;;;;;;2277202;61;1289;-87
2023/08/16 05:06:17;928508.00;3.10;1606.25;98643.00;0.33;171.23;;;;;22.70;16.60;;;;;;2277152;61;2029;-89
2023/08/16 05:08:43;436746.00;1.46;752.99;0.00;0.00;0.62;;;;;22.80;16.10;;;;;;2277283;61;1172;-89
2023/08/16 05:11:12;383910.00;1.28;662.15;3615.00;0.01;6.89;;;;;23.00;15.60;;;;;;2277116;61;1518;-85
2023/08/16 05:13:39;598699.00;2.00;1031.97;15637.00;0.05;27.71;;;;;23.10;15.40;;;;;;2277260;61;1388;-87
2023/08/16 05:16:05;412741.00;1.38;711.71;42623.00;0.14;74.43;;;;;23.30;14.30;;;;;;2277182;61;1095;-90
2023/08/16 05:18:32;591031.00;1.97;1018.74;54824.00;0.18;95.53;;;;;23.30;14.30;;;;;;2277204;61;1592;-87
2023/08/16 05:21:00;720431.00;2.40;1242.69;369.00;0.00;1.26;;;;;23.60;13.70;;;;;;2277247;61;1083;-87
2023/08/16 05:23:27;508538.00;1.70;876.52;78492.00;0.26;136.43;;;;;23.50;13.50;;;;;;2277175;61;1401;-86
2023/08/16 05:25:54;566173.00;1.89;975.85;64100.00;0.21;111.56;;;;;23.70;13.50;;;;;;2277116;61;1923;-87
2023/08/16 05:28:23;499009.00;1.66;860.12;88594.00;0.30;153.88;;;;;23.90;13.30;;;;;;2277185;61;971;-85
2023/08/16 05:30:50;827952.00;2.76;1429.92;183675.00;0.61;317.82;;;;;24.00;12.90;;;;;;2277249;61;1074;-87
2023/08/16 05:33:16;740301.00;2.47;1277.20;50109.00;0.17;87.37;;;;;24.10;12.90;;;;;;2277134;61;1398;-86
2023/08/16 05:35:44;402507.00;1.34;694.11;45763.00;0.15;79.86;;;;;24.30;13.50;;;;;;2277184;61;1077;-87
2023/08/16 05:38:10;512222.00;1.71;882.87;0.00;0.00;0.62;;;;;24.90;14.30;;;;;;2277148;61;1121;-86
2023/08/16 05:40:37;537013.00;1.79;925.58;30931.00;0.10;54.19;;;;;25.90;11.10;;;;;;2277116;61;1117;-86
2023/08/16 05:43:04;444147.00;1.48;765.72;8189.00;0.03;14.81;;;;;27.00;9.50;;;;;;2277122;61;1337;-88
2023/08/16 05:45:32;601238.00;2.00;1036.36;14763.00;0.05;26.20;;;;;28.00;5.50;;;;;;2277109;61;2005;-88
2023/08/16 05:47:59;666964.00;2.22;1150.00;31756.00;0.11;55.62;;;;;28.80;2.90;;;;;;2277055;61;1106;-87
2023/08/16 05:50:26;758433.00;2.53;1308.72;48809.00;0.16;85.13;;;;;29.60;1.00;;;;;;2277243;61;1113;-88
2023/08/16 05:52:53;785631.00;2.62;1356.08;124940.00;0.42;216.60;;;;;30.00;1.00;;;;;;2277050;61;1493;-86
2023/08/16 05:55:20;694549.00;2.32;1197.79;112164.00;0.37;194.56;;;;;30.40;1.00;;;;;;2277067;61;1365;-90
2023/08/16 05:57:46;801287.00;2.67;1383.37;118135.00;0.39;204.87;;;;;31.00;1.00;;;;;;2277093;61;1053;-87
2023/08/16 06:00:14;436552.00;1.46;752.65;67209.00;0.22;116.94;;;;;31.10;1.00;;;;;;2277100;61;1081;-88
2023/08/16 06:02:42;302606.00;1.01;522.40;62132.00;0.21;108.16;;;;;31.50;1.00;;;;;;2277138;61;1126;-88
2023/08/16 06:05:10;376898.00;1.26;650.09;69497.00;0.23;120.89;;;;;31.70;1.00;;;;;;2276982;61;1931;-87
2023/08/16 06:07:37;202146.00;0.67;349.62;66322.00;0.22;115.40;;;;;31.90;1.00;;;;;;2276952;61;1104;-88
2023/08/16 06:10:04;270254.00;0.90;466.78;95767.00;0.32;166.26;;;;;32.20;1.00;;;;;;2276998;61;1141;-88
2023/08/16 06:12:31;365445.00;1.22;630.41;59837.00;0.20;104.20;;;;;32.60;1.00;;;;;;2277012;61;1093;-86
2023/08/16 06:14:58;182722.00;0.61;316.18;59035.00;0.20;102.81;;;;;33.50;1.00;;;;;;2276962;61;1372;-87
2023/08/16 06:17:25;171425.00;0.57;296.72;59762.00;0.20;104.07;;;;;34.20;1.00;;;;;;2276904;61;1447;-86
2023/08/16 06:19:53;19297.00;0.06;34.05;0.00;0.00;0.62;;;;;34.80;1.00;;;;;;2276925;61;1231;-86
2023/08/16 06:22:20;0.00;0.00;0.62;0.00;0.00;0.62;;;;;34.80;1.00;;;;;;2277132;61;1050;-88
2023/08/16 06:24:47;0.00;0.00;0.62;0.00;0.00;0.62;;;;;34.80;1.00;;;;;;2276846;61;2008;-87
2023/08/16 06:27:14;3109.00;0.01;6.01;0.00;0.00;0.62;;;;;35.30;1.00;;;;;;2276998;61;1144;-89
2023/08/16 06:29:40;0.00;0.00;0.62;0.00;0.00;0.62;;;;;35.90;1.00;;;;;;2276997;61;1107;-86
2023/08/16 06:32:07;0.00;0.00;0.62;0.00;0.00;0.62;;;;;36.40;1.00;;;;;;2277036;61;984;-86
2023/08/16 06:34:35;0.00;0.00;0.62;0.00;0.00;0.62;;;;;36.40;1.00;;;;;;2276748;61;1381;-87
2023/08/16 06:37:04;57429.00;0.19;100.03;0.00;0.00;0.62;;;;;36.30;1.00;;;;;;2277030;61;1069;-86
2023/08/16 06:39:31;0.00;0.00;0.62;0.00;0.00;0.62;;;;;36.20;1.00;;;;;;2276970;61;1085;-87
2023/08/16 06:41:57;152820.00;0.51;264.67;31268.00;0.10;54.78;;;;;35.90;1.00;;;;;;2276990;61;1043;-86
2023/08/16 06:44:24;0.00;0.00;0.62;0.00;0.00;0.62;;;;;35.80;1.00;;;;;;2276912;61;1438;-86
2023/08/16 06:46:51;0.00;0.00;0.62;0.00;0.00;0.62;;;;;35.50;1.00;;;;;;2276962;61;2005;-88
2023/08/16 06:49:18;399972.00;1.33;689.76;101123.00;0.34;175.51;;;;;36.40;1.00;;;;;;2276930;61;1231;-87
2023/08/16 06:51:45;81693.00;0.27;141.96;0.00;0.00;0.62;;;;;37.30;1.00;;;;;;2276869;61;1493;-88
2023/08/16 06:54:13;176421.00;0.59;305.33;72064.00;0.24;125.33;;;;;36.60;1.00;;;;;;2276831;61;1394;-89
2023/08/16 06:56:40;136188.00;0.45;236.00;59265.00;0.20;103.21;;;;;36.20;1.00;;;;;;2276840;61;959;-87
2023/08/16 06:59:07;22963.00;0.08;40.40;0.00;0.00;0.62;;;;;36.40;1.00;;;;;;2276851;61;1533;-89
2023/08/16 07:01:34;115064.00;0.38;199.57;0.00;0.00;0.62;;;;;36.30;1.00;;;;;;2276760;61;1092;-88
2023/08/16 07:04:01;124428.00;0.41;215.72;0.00;0.00;0.62;;;;;36.90;1.00;;;;;;2276836;61;1527;-88
2023/08/16 07:06:31;0.00;0.00;0.62;0.00;0.00;0.62;;;;;37.50;1.00;;;;;;2276680;61;2000;-85
2023/08/16 07:08:58;254788.00;0.85;440.19;94706.00;0.32;164.43;;;;;37.80;1.00;;;;;;2276837;61;1272;-86
2023/08/16 07:11:26;0.00;0.00;0.62;0.00;0.00;0.62;;;;;38.20;1.00;;;;;;2276853;61;1040;-89
2023/08/16 07:13:53;41597.00;0.14;72.65;0.00;0.00;0.62;;;;;37.30;1.00;;;;;;2276898;61;1423;-87
2023/08/16 07:16:20;72792.00;0.24;126.58;0.00;0.00;0.62;;;;;37.00;1.00;;;;;;2276850;61;1577;-86
2023/08/16 07:18:46;0.00;0.00;0.62;0.00;0.00;0.62;;;;;37.70;1.00;;;;;;2276826;61;996;-88
2023/08/16 07:21:13;147347.00;0.49;255.24;0.00;0.00;0.62;;;;;38.30;1.00;;;;;;2276843;61;1099;-87
2023/08/16 07:23:40;0.00;0.00;0.62;0.00;0.00;0.62;;;;;37.70;1.00;;;;;;2277078;61;1409;-87
2023/08/16 07:26:07;276089.00;0.92;476.81;78833.00;0.26;137.02;;;;;37.50;1.00;;;;;;2277528;61;2000;-89
2023/08/16 07:28:35;0.00;0.00;0.62;0.00;0.00;0.62;;;;;38.10;1.00;;;;;;2277439;61;2241;-90
2023/08/16 07:31:02;208845.00;0.70;361.15;0.00;0.00;0.62;;;;;38.40;1.00;;;;;;2277665;61;901;-88
2023/08/16 07:33:30;107075.00;0.36;185.78;0.00;0.00;0.62;;;;;37.60;1.00;;;;;;2277526;61;1624;-90
2023/08/16 07:36:01;0.00;0.00;0.62;0.00;0.00;0.62;;;;;37.30;1.00;;;;;;2277583;61;1552;-89
2023/08/16 07:38:28;53467.00;0.18;93.18;0.00;0.00;0.62;;;;;36.80;1.00;;;;;;2277586;61;1049;-88
2023/08/16 07:40:55;235730.00;0.79;407.41;105027.00;0.35;182.25;;;;;35.90;1.00;;;;;;2277530;61;1438;-90
2023/08/16 07:43:22;284257.00;0.95;490.86;82394.00;0.27;143.17;;;;;35.20;1.00;;;;;;2277500;61;1421;-89
2023/08/16 07:45:54;147078.00;0.49;254.77;0.00;0.00;0.62;;;;;34.40;1.00;;;;;;2277449;61;1908;-91
2023/08/16 07:48:21;34251.00;0.11;59.94;0.00;0.00;0.62;;;;;34.20;1.00;;;;;;2277436;61;1108;-87
2023/08/16 07:50:49;31499.00;0.10;55.18;0.00;0.00;0.62;;;;;33.70;1.00;;;;;;2294554;55;3731;-88
2023/08/16 07:53:17;0.00;0.00;0.62;0.00;0.00;0.62;;;;;33.60;1.00;;;;;;2292128;55;3765;-88
2023/08/16 07:55:44;246073.00;0.82;425.20;0.00;0.00;0.62;;;;;33.40;1.00;;;;;;2297651;40;3646;-90
2023/08/16 08:00:38;236177.00;0.79;408.18;0.00;0.00;0.62;;;;;33.10;1.00;;;;;;2274849;61;1412;-90
2023/08/16 08:03:08;0.00;0.00;0.62;0.00;0.00;0.62;;;;;33.40;1.00;;;;;;2294271;55;3763;-89
2023/08/16 08:05:35;158486.00;0.53;274.43;0.00;0.00;0.62;;;;;33.50;1.00;;;;;;2279340;61;1998;-90
2023/08/16 08:08:02;0.00;0.00;0.62;0.00;0.00;0.62;;;;;33.50;1.00;;;;;;2277188;61;1082;-88
2023/08/16 08:10:30;155728.00;0.52;269.68;0.00;0.00;0.62;;;;;33.40;1.00;;;;;;2277405;61;1098;-89
2023/08/16 08:12:57;0.00;0.00;0.62;0.00;0.00;0.62;;;;;33.40;1.00;;;;;;2277401;61;1042;-91
2023/08/16 08:15:24;64479.00;0.21;112.22;0.00;0.00;0.62;;;;;33.50;1.00;;;;;;2310093;55;3773;-89
2023/08/16 08:17:51;86800.00;0.29;150.78;0.00;0.00;0.62;;;;;33.60;1.00;;;;;;2273280;61;1100;-90
2023/08/16 08:20:19;91405.00;0.30;158.73;0.00;0.00;0.62;;;;;33.70;1.00;;;;;;2273161;61;1552;-88
2023/08/16 08:22:46;49324.00;0.16;86.02;0.00;0.00;0.62;;;;;33.80;1.00;;;;;;2273231;61;1066;-90
2023/08/16 08:25:13;145101.00;0.48;251.36;0.00;0.00;0.62;;;;;34.10;1.00;;;;;;2276937;61;1435;-90
2023/08/16 08:27:39;141038.00;0.47;244.36;0.00;0.00;0.62;;;;;34.80;1.00;;;;;;2277298;61;2001;-89
2023/08/16 08:30:08;112456.00;0.37;195.07;0.00;0.00;0.62;;;;;35.20;1.00;;;;;;2277245;61;1081;-89
2023/08/16 08:32:35;0.00;0.00;0.62;0.00;0.00;0.62;;;;;35.50;1.00;;;;;;2277311;61;1761;-89
2023/08/16 08:35:03;79493.00;0.26;138.16;0.00;0.00;0.62;;;;;35.90;1.00;;;;;;2277157;61;1605;-88
2023/08/16 08:42:30;523836.00;1.75;902.87;46346.00;0.15;80.87;;;;;34.50;1.00;;;;;;2332998;40;3561;-91
2023/08/16 09:05:00;312337.00;1.04;539.13;0.00;0.00;0.62;;;;;31.80;1.00;;;;;;2458995;56;3596;-87
2023/08/16 09:20:05;857311.00;2.86;1481.26;0.00;0.00;0.62;;;;;31.90;1.00;;;;;;2450998;40;3644;-85
2023/08/16 09:22:33;158837.00;0.53;275.04;35073.00;0.12;61.36;;;;;31.70;1.00;;;;;;2408768;55;3702;-86
2023/08/16 09:27:28;646918.00;2.16;1115.30;0.00;0.00;0.62;;;;;30.70;1.00;;;;;;2352260;40;3744;-86
2023/08/16 10:02:34;747708.00;2.49;1290.07;127949.00;0.43;221.79;;;;;31.60;1.00;;;;;;2267242;61;962;-90
2023/08/16 10:10:09;1825640.00;6.09;3272.24;117136.00;0.39;203.14;;;;;30.90;1.00;;;;;;2275300;61;1024;-91
2023/08/16 10:15:09;1241330.00;4.14;2165.13;0.00;0.00;0.62;;;;;31.40;1.00;;;;;;2279223;61;1407;-92
2023/08/16 10:30:19;1377947.00;4.59;2415.49;30145.00;0.10;52.83;;;;;30.90;1.00;;;;;;2266892;61;1174;-90
2023/08/16 10:48:20;1469609.00;4.90;2586.06;170768.00;0.57;295.59;;;;;30.40;1.00;;;;;;2275536;61;1955;-91
2023/08/16 12:06:17;1324848.00;4.42;2317.65;0.00;0.00;0.62;;;;;32.30;1.00;;;;;;1708617;56;3573;-88
2023/08/16 13:36:50;285607.00;0.95;493.18;0.00;0.00;0.62;;;;;32.10;1.00;;;;;;2339452;40;3678;-86
2023/08/16 14:09:25;916446.00;3.05;1585.02;0.00;0.00;0.62;;;;;34.10;1.00;;;;;;2293155;40;3350;-87
2023/08/16 14:16:53;863215.00;2.88;1491.60;0.00;0.00;0.62;;;;;34.60;1.00;;;;;;2322883;41;3449;-87
2023/08/16 14:34:34;1023503.00;3.41;1774.14;0.00;0.00;0.62;;;;;34.90;1.00;;;;;;2266327;61;1433;-86
2023/08/16 14:42:00;891993.00;2.97;1542.06;112538.00;0.38;195.21;;;;;34.40;1.00;;;;;;2287245;40;3423;-89
2023/08/16 14:49:26;119218640.00;397.40;68640280.00;117978496.00;393.26;66518560.00;;;;;34.40;1.00;;;;;;2274926;61;1114;-91
2023/08/16 14:51:55;116716.00;0.39;202.42;0.00;0.00;0.62;;;;;34.60;1.00;;;;;;2273510;61;823;-90
2023/08/16 14:54:21;42754.00;0.14;74.65;0.00;0.00;0.62;;;;;34.90;1.00;;;;;;2390906;40;3609;-89
2023/08/16 14:56:48;166325.00;0.55;287.94;0.00;0.00;0.62;;;;;34.90;1.00;;;;;;2296926;40;3628;-91
2023/08/16 14:59:15;417556.00;1.39;719.99;68445.00;0.23;119.07;;;;;35.10;1.00;;;;;;2272764;61;994;-90
2023/08/16 15:11:41;1410436.00;4.70;2475.69;165640.00;0.55;286.76;;;;;35.40;1.00;;;;;;2281273;56;3578;-90
2023/08/16 15:14:10;395365.00;1.32;681.84;0.00;0.00;0.62;;;;;34.90;1.00;;;;;;2274991;40;3606;-89
2023/08/16 15:24:05;1934319.00;6.45;3490.32;265901.00;0.89;459.30;;;;;34.30;1.00;;;;;;2292246;40;3594;-89
2023/08/16 15:29:02;1983956.00;6.61;3591.43;182145.00;0.61;315.18;;;;;34.10;1.00;;;;;;2276521;40;3668;-87
2023/08/16 15:31:29;685289.00;2.28;1181.74;47472.00;0.16;82.81;;;;;32.60;1.00;;;;;;2272525;61;1432;-88
2023/08/16 15:36:25;1013809.00;3.38;1756.94;6452.00;0.02;11.80;;;;;30.60;1.00;;;;;;2266691;61;1354;-88
2023/08/16 15:38:52;617627.00;2.06;1064.67;17054.00;0.06;30.17;;;;;30.00;1.00;;;;;;2264555;61;1413;-87
2023/08/16 15:43:48;1502841.00;5.01;2648.47;51126.00;0.17;89.13;;;;;30.00;1.00;;;;;;2281898;40;3419;-90
2023/08/16 15:48:46;1183733.00;3.95;2060.84;14532.00;0.05;25.80;;;;;30.70;1.00;;;;;;2267197;61;1428;-88
2023/08/16 15:51:13;637336.00;2.12;1098.73;23570.00;0.08;41.45;;;;;30.00;1.00;;;;;;2265256;61;1663;-87
2023/08/16 15:53:40;784484.00;2.61;1354.08;73634.00;0.25;128.04;;;;;28.80;1.00;;;;;;2265395;61;1304;-87
2023/08/16 15:56:07;554617.00;1.85;955.92;28956.00;0.10;50.78;;;;;28.30;1.00;;;;;;2265361;61;1542;-89
2023/08/16 15:58:34;794776.00;2.65;1372.01;102662.00;0.34;178.17;;;;;27.90;1.00;;;;;;2265232;61;997;-89